PLT2168 SBGR-SBLO
Flight info
| Callsign | PLT2168 |
|---|---|
| Flight time | 0h 55m |
| Altitude | 28000 |
| Route | EGEVA UZ58 UMPIG |
| Aircraft | E75L/M-SDE3GILORVW/S |
Departure
| Time | 2026-05-08 12:29 |
|---|---|
| Airport | São Paulo/Guarulhos–Governor André Franco Montoro International Airport (SBGR) |
Arrival
| Time | 2026-05-08 13:25 |
|---|---|
| Airport | Governor José Richa Airport (SBLO) |
| Time | Latitude | Longitude | Altitude | Speed | Heading |
|---|---|---|---|---|---|
| 2026-05-08 11:37 | -23.42904 | -46.48361 | 2463 ft | 0 kts | 86° |
| 2026-05-08 12:14 | -23.42906 | -46.48384 | 2462 ft | 4 kts | 84° |
| 2026-05-08 12:15 | -23.42907 | -46.48408 | 2463 ft | 4 kts | 94° |
| 2026-05-08 12:15 | -23.42900 | -46.48435 | 2463 ft | 4 kts | 124° |
| 2026-05-08 12:15 | -23.42880 | -46.48449 | 2463 ft | 3 kts | 180° |
| 2026-05-08 12:15 | -23.42871 | -46.48449 | 2462 ft | 2 kts | 180° |
| 2026-05-08 12:23 | -23.42872 | -46.48449 | 2462 ft | 0 kts | 179° |
| 2026-05-08 12:23 | -23.42880 | -46.48449 | 2463 ft | 2 kts | 179° |
| 2026-05-08 12:23 | -23.42895 | -46.48448 | 2463 ft | 3 kts | 179° |
| 2026-05-08 12:24 | -23.42922 | -46.48448 | 2463 ft | 5 kts | 179° |
| 2026-05-08 12:24 | -23.42969 | -46.48447 | 2466 ft | 9 kts | 179° |
| 2026-05-08 12:24 | -23.43033 | -46.48443 | 2466 ft | 8 kts | 170° |
| 2026-05-08 12:24 | -23.43087 | -46.48430 | 2467 ft | 8 kts | 166° |
| 2026-05-08 12:25 | -23.43146 | -46.48414 | 2464 ft | 9 kts | 166° |
| 2026-05-08 12:25 | -23.43186 | -46.48404 | 2464 ft | 10 kts | 166° |
| 2026-05-08 12:25 | -23.43244 | -46.48388 | 2468 ft | 17 kts | 163° |
| 2026-05-08 12:26 | -23.43303 | -46.48365 | 2466 ft | 0 kts | 161° |
| 2026-05-08 12:26 | -23.43312 | -46.48361 | 2465 ft | 5 kts | 161° |
| 2026-05-08 12:27 | -23.43372 | -46.48341 | 2461 ft | 10 kts | 162° |
| 2026-05-08 12:27 | -23.43413 | -46.48306 | 2463 ft | 7 kts | 108° |
| 2026-05-08 12:27 | -23.43407 | -46.48255 | 2461 ft | 0 kts | 72° |
| 2026-05-08 12:28 | -23.43406 | -46.48255 | 2459 ft | 0 kts | 72° |
| 2026-05-08 12:28 | -23.43402 | -46.48238 | 2459 ft | 11 kts | 72° |
| 2026-05-08 12:28 | -23.43349 | -46.48056 | 2461 ft | 43 kts | 72° |
| 2026-05-08 12:29 | -23.43207 | -46.47523 | 2459 ft | 105 kts | 75° |
| 2026-05-08 12:29 | -23.42955 | -46.46552 | 2466 ft | 159 kts | 74° |
| 2026-05-08 12:29 | -23.42651 | -46.45245 | 2823 ft | 183 kts | 73° |
| 2026-05-08 12:29 | -23.42366 | -46.43909 | 3667 ft | 191 kts | 74° |
| 2026-05-08 12:30 | -23.42017 | -46.42407 | 4411 ft | 208 kts | 68° |
| 2026-05-08 12:30 | -23.41432 | -46.40850 | 5032 ft | 230 kts | 68° |
| 2026-05-08 12:30 | -23.40893 | -46.39275 | 5910 ft | 230 kts | 66° |
| 2026-05-08 12:30 | -23.40387 | -46.37649 | 6942 ft | 228 kts | 67° |
| 2026-05-08 12:31 | -23.40166 | -46.35879 | 7698 ft | 247 kts | 91° |
| 2026-05-08 12:31 | -23.40573 | -46.33986 | 8457 ft | 271 kts | 105° |
| 2026-05-08 12:31 | -23.41232 | -46.31962 | 9091 ft | 297 kts | 108° |
| 2026-05-08 12:31 | -23.41988 | -46.29803 | 9067 ft | 314 kts | 109° |
| 2026-05-08 12:32 | -23.42809 | -46.27570 | 8882 ft | 309 kts | 115° |
| 2026-05-08 12:32 | -23.44142 | -46.25824 | 9448 ft | 312 kts | 146° |
| 2026-05-08 12:32 | -23.46151 | -46.24933 | 10521 ft | 320 kts | 172° |
| 2026-05-08 12:32 | -23.48431 | -46.24986 | 11165 ft | 338 kts | 191° |
| 2026-05-08 12:33 | -23.50793 | -46.25523 | 11829 ft | 356 kts | 196° |
| 2026-05-08 12:33 | -23.53226 | -46.26265 | 12572 ft | 367 kts | 203° |
| 2026-05-08 12:33 | -23.55361 | -46.27751 | 13530 ft | 365 kts | 229° |
| 2026-05-08 12:33 | -23.56679 | -46.30067 | 14599 ft | 359 kts | 254° |
| 2026-05-08 12:34 | -23.57282 | -46.32701 | 15628 ft | 360 kts | 261° |
| 2026-05-08 12:34 | -23.57837 | -46.35402 | 16135 ft | 368 kts | 261° |
| 2026-05-08 12:34 | -23.58348 | -46.38145 | 16082 ft | 368 kts | 262° |
| 2026-05-08 12:34 | -23.58817 | -46.40873 | 16089 ft | 366 kts | 263° |
| 2026-05-08 12:35 | -23.59289 | -46.43591 | 16101 ft | 365 kts | 263° |
| 2026-05-08 12:35 | -23.59763 | -46.46307 | 16109 ft | 365 kts | 262° |
| 2026-05-08 12:35 | -23.60241 | -46.49023 | 16119 ft | 365 kts | 262° |
| 2026-05-08 12:35 | -23.60720 | -46.51729 | 16748 ft | 363 kts | 262° |
| 2026-05-08 12:36 | -23.61166 | -46.54461 | 17600 ft | 368 kts | 264° |
| 2026-05-08 12:36 | -23.61560 | -46.57233 | 18391 ft | 373 kts | 264° |
| 2026-05-08 12:36 | -23.61959 | -46.60051 | 19138 ft | 379 kts | 264° |
| 2026-05-08 12:36 | -23.62372 | -46.62912 | 19849 ft | 384 kts | 264° |
| 2026-05-08 12:37 | -23.63009 | -46.65748 | 20507 ft | 393 kts | 249° |
| 2026-05-08 12:37 | -23.64372 | -46.68358 | 21234 ft | 398 kts | 241° |
| 2026-05-08 12:37 | -23.65862 | -46.70920 | 21865 ft | 401 kts | 240° |
| 2026-05-08 12:37 | -23.67386 | -46.73489 | 22430 ft | 405 kts | 240° |
| 2026-05-08 12:38 | -23.68827 | -46.76138 | 23045 ft | 406 kts | 250° |
| 2026-05-08 12:38 | -23.69432 | -46.79104 | 23652 ft | 399 kts | 271° |
| 2026-05-08 12:38 | -23.68965 | -46.82070 | 24150 ft | 397 kts | 292° |
| 2026-05-08 12:38 | -23.67644 | -46.84719 | 24543 ft | 399 kts | 303° |
| 2026-05-08 12:39 | -23.66100 | -46.87255 | 24997 ft | 403 kts | 304° |
| 2026-05-08 12:39 | -23.64517 | -46.89788 | 25437 ft | 405 kts | 304° |
| 2026-05-08 12:39 | -23.62924 | -46.92323 | 26074 ft | 404 kts | 304° |
| 2026-05-08 12:39 | -23.61349 | -46.94838 | 26760 ft | 399 kts | 304° |
| 2026-05-08 12:40 | -23.59784 | -46.97322 | 27485 ft | 397 kts | 304° |
| 2026-05-08 12:40 | -23.58216 | -46.99786 | 28058 ft | 395 kts | 304° |
| 2026-05-08 12:40 | -23.56654 | -47.02166 | 28074 ft | 378 kts | 305° |
| 2026-05-08 12:40 | -23.55145 | -47.04414 | 28103 ft | 358 kts | 306° |
| 2026-05-08 12:41 | -23.53704 | -47.06560 | 28130 ft | 344 kts | 305° |
| 2026-05-08 12:41 | -23.52288 | -47.08678 | 28112 ft | 348 kts | 305° |
| 2026-05-08 12:41 | -23.49448 | -47.12981 | 28117 ft | 350 kts | 304° |
| 2026-05-08 12:42 | -23.46689 | -47.17363 | 28111 ft | 351 kts | 304° |
| 2026-05-08 12:42 | -23.43918 | -47.21729 | 28121 ft | 351 kts | 304° |
| 2026-05-08 12:43 | -23.41136 | -47.26096 | 28137 ft | 351 kts | 304° |
| 2026-05-08 12:43 | -23.38353 | -47.30461 | 28136 ft | 351 kts | 304° |
| 2026-05-08 12:44 | -23.35575 | -47.34813 | 28089 ft | 349 kts | 304° |
| 2026-05-08 12:44 | -23.32800 | -47.39153 | 28105 ft | 350 kts | 304° |
| 2026-05-08 12:45 | -23.30040 | -47.43468 | 28106 ft | 350 kts | 304° |
| 2026-05-08 12:45 | -23.27262 | -47.47811 | 28102 ft | 349 kts | 304° |
| 2026-05-08 12:46 | -23.24471 | -47.52166 | 28104 ft | 349 kts | 304° |
| 2026-05-08 12:46 | -23.21698 | -47.56487 | 28102 ft | 349 kts | 304° |
| 2026-05-08 12:47 | -23.18996 | -47.60820 | 28112 ft | 348 kts | 298° |
| 2026-05-08 12:47 | -23.18062 | -47.63247 | 28113 ft | 349 kts | 287° |
| 2026-05-08 12:47 | -23.17629 | -47.65844 | 28118 ft | 351 kts | 276° |
| 2026-05-08 12:48 | -23.17346 | -47.71143 | 28099 ft | 351 kts | 275° |
| 2026-05-08 12:48 | -23.17130 | -47.76444 | 28093 ft | 351 kts | 274° |
| 2026-05-08 12:49 | -23.16930 | -47.81751 | 28087 ft | 352 kts | 274° |
| 2026-05-08 12:49 | -23.16736 | -47.87048 | 28093 ft | 350 kts | 274° |
| 2026-05-08 12:50 | -23.16568 | -47.91479 | 28094 ft | 351 kts | 275° |
| 2026-05-08 12:50 | -23.16363 | -47.96771 | 28093 ft | 351 kts | 275° |
| 2026-05-08 12:51 | -23.16058 | -48.04687 | 28091 ft | 347 kts | 275° |
| 2026-05-08 12:52 | -23.15852 | -48.09929 | 28087 ft | 348 kts | 275° |
| 2026-05-08 12:52 | -23.15542 | -48.17770 | 28081 ft | 348 kts | 275° |
| 2026-05-08 12:53 | -23.15334 | -48.23026 | 28080 ft | 348 kts | 275° |
| 2026-05-08 12:53 | -23.15123 | -48.28282 | 28087 ft | 348 kts | 275° |
| 2026-05-08 12:54 | -23.14911 | -48.33538 | 28076 ft | 348 kts | 275° |
| 2026-05-08 12:54 | -23.14700 | -48.38801 | 28070 ft | 348 kts | 275° |
| 2026-05-08 12:55 | -23.14478 | -48.44051 | 28076 ft | 348 kts | 275° |
| 2026-05-08 12:55 | -23.14260 | -48.49304 | 28074 ft | 348 kts | 275° |
| 2026-05-08 12:56 | -23.14044 | -48.54558 | 28074 ft | 348 kts | 275° |
| 2026-05-08 12:56 | -23.14315 | -48.59831 | 28062 ft | 351 kts | 268° |
| 2026-05-08 12:57 | -23.14748 | -48.65095 | 28054 ft | 350 kts | 268° |
| 2026-05-08 12:57 | -23.15203 | -48.70361 | 28070 ft | 350 kts | 268° |
| 2026-05-08 12:58 | -23.15658 | -48.75629 | 28062 ft | 349 kts | 268° |
| 2026-05-08 12:58 | -23.16106 | -48.80881 | 28073 ft | 349 kts | 268° |
| 2026-05-08 12:59 | -23.16553 | -48.86145 | 28055 ft | 349 kts | 268° |
| 2026-05-08 12:59 | -23.17001 | -48.91404 | 28057 ft | 350 kts | 268° |
| 2026-05-08 13:00 | -23.17450 | -48.96667 | 28056 ft | 349 kts | 268° |
| 2026-05-08 13:00 | -23.17887 | -49.01892 | 28062 ft | 350 kts | 268° |
| 2026-05-08 13:01 | -23.18328 | -49.07153 | 28057 ft | 349 kts | 268° |
| 2026-05-08 13:01 | -23.18768 | -49.12403 | 28042 ft | 349 kts | 268° |
| 2026-05-08 13:02 | -23.19207 | -49.17659 | 28047 ft | 349 kts | 268° |
| 2026-05-08 13:02 | -23.19689 | -49.22908 | 28052 ft | 349 kts | 268° |
| 2026-05-08 13:03 | -23.20104 | -49.28156 | 28046 ft | 349 kts | 267° |
| 2026-05-08 13:03 | -23.20629 | -49.33394 | 28042 ft | 348 kts | 267° |
| 2026-05-08 13:04 | -23.21149 | -49.38633 | 28022 ft | 349 kts | 267° |
| 2026-05-08 13:04 | -23.21567 | -49.43881 | 28026 ft | 348 kts | 269° |
| 2026-05-08 13:05 | -23.21921 | -49.49117 | 28028 ft | 348 kts | 269° |
| 2026-05-08 13:05 | -23.22308 | -49.54353 | 28026 ft | 347 kts | 269° |
| 2026-05-08 13:06 | -23.22700 | -49.59585 | 27961 ft | 349 kts | 269° |
| 2026-05-08 13:06 | -23.22895 | -49.62230 | 27662 ft | 350 kts | 269° |
| 2026-05-08 13:06 | -23.23090 | -49.64860 | 27448 ft | 349 kts | 269° |
| 2026-05-08 13:07 | -23.23286 | -49.67503 | 26930 ft | 354 kts | 269° |
| 2026-05-08 13:07 | -23.23485 | -49.70172 | 26441 ft | 354 kts | 269° |
| 2026-05-08 13:07 | -23.23679 | -49.72836 | 25969 ft | 352 kts | 269° |
| 2026-05-08 13:07 | -23.23876 | -49.75454 | 25519 ft | 353 kts | 269° |
| 2026-05-08 13:08 | -23.24087 | -49.78123 | 25015 ft | 354 kts | 268° |
| 2026-05-08 13:08 | -23.24301 | -49.80779 | 24564 ft | 352 kts | 268° |
| 2026-05-08 13:08 | -23.24514 | -49.83421 | 24095 ft | 349 kts | 268° |
| 2026-05-08 13:08 | -23.24719 | -49.86035 | 23637 ft | 347 kts | 269° |
| 2026-05-08 13:09 | -23.24924 | -49.88647 | 23163 ft | 344 kts | 269° |
| 2026-05-08 13:09 | -23.25128 | -49.91233 | 22734 ft | 342 kts | 269° |
| 2026-05-08 13:09 | -23.25329 | -49.93814 | 22243 ft | 342 kts | 269° |
| 2026-05-08 13:09 | -23.25526 | -49.96380 | 21812 ft | 340 kts | 269° |
| 2026-05-08 13:10 | -23.25728 | -49.98935 | 21362 ft | 337 kts | 269° |
| 2026-05-08 13:10 | -23.25927 | -50.01470 | 20903 ft | 336 kts | 269° |
| 2026-05-08 13:10 | -23.26124 | -50.03995 | 20494 ft | 333 kts | 269° |
| 2026-05-08 13:10 | -23.26317 | -50.06495 | 20005 ft | 331 kts | 269° |
| 2026-05-08 13:11 | -23.26508 | -50.08977 | 19584 ft | 328 kts | 269° |
| 2026-05-08 13:11 | -23.26697 | -50.11447 | 19157 ft | 327 kts | 269° |
| 2026-05-08 13:11 | -23.26887 | -50.13909 | 18716 ft | 326 kts | 268° |
| 2026-05-08 13:11 | -23.27078 | -50.16362 | 18277 ft | 325 kts | 268° |
| 2026-05-08 13:12 | -23.27265 | -50.18808 | 17851 ft | 324 kts | 269° |
| 2026-05-08 13:12 | -23.27450 | -50.21246 | 17436 ft | 323 kts | 269° |
| 2026-05-08 13:12 | -23.27635 | -50.23671 | 16994 ft | 321 kts | 268° |
| 2026-05-08 13:12 | -23.27817 | -50.26075 | 16573 ft | 317 kts | 269° |
| 2026-05-08 13:13 | -23.27997 | -50.28460 | 16154 ft | 315 kts | 269° |
| 2026-05-08 13:13 | -23.28176 | -50.30818 | 15734 ft | 312 kts | 268° |
| 2026-05-08 13:13 | -23.28361 | -50.33159 | 15330 ft | 309 kts | 269° |
| 2026-05-08 13:13 | -23.28535 | -50.35484 | 14921 ft | 307 kts | 269° |
| 2026-05-08 13:14 | -23.28706 | -50.37776 | 14510 ft | 302 kts | 269° |
| 2026-05-08 13:14 | -23.28949 | -50.40030 | 14104 ft | 299 kts | 262° |
| 2026-05-08 13:14 | -23.29527 | -50.42194 | 13722 ft | 297 kts | 255° |
| 2026-05-08 13:14 | -23.30234 | -50.44296 | 13317 ft | 294 kts | 255° |
| 2026-05-08 13:15 | -23.30901 | -50.46377 | 12932 ft | 290 kts | 256° |
| 2026-05-08 13:15 | -23.31536 | -50.48462 | 12549 ft | 287 kts | 257° |
| 2026-05-08 13:15 | -23.32133 | -50.50516 | 12176 ft | 284 kts | 257° |
| 2026-05-08 13:15 | -23.32710 | -50.52564 | 11795 ft | 284 kts | 258° |
| 2026-05-08 13:16 | -23.33284 | -50.54614 | 11423 ft | 283 kts | 258° |
| 2026-05-08 13:16 | -23.33866 | -50.56667 | 11053 ft | 284 kts | 258° |
| 2026-05-08 13:16 | -23.34439 | -50.58699 | 10650 ft | 284 kts | 258° |
| 2026-05-08 13:16 | -23.35019 | -50.60748 | 10297 ft | 283 kts | 258° |
| 2026-05-08 13:17 | -23.35601 | -50.62800 | 9907 ft | 284 kts | 258° |
| 2026-05-08 13:17 | -23.36200 | -50.64873 | 9518 ft | 282 kts | 258° |
| 2026-05-08 13:17 | -23.36776 | -50.66886 | 9198 ft | 281 kts | 259° |
| 2026-05-08 13:17 | -23.37348 | -50.68922 | 8803 ft | 283 kts | 259° |
| 2026-05-08 13:18 | -23.37921 | -50.70966 | 8412 ft | 282 kts | 259° |
| 2026-05-08 13:18 | -23.38491 | -50.73002 | 8023 ft | 281 kts | 259° |
| 2026-05-08 13:18 | -23.39060 | -50.75021 | 7689 ft | 276 kts | 259° |
| 2026-05-08 13:18 | -23.39618 | -50.77009 | 7277 ft | 274 kts | 259° |
| 2026-05-08 13:19 | -23.40168 | -50.78983 | 6972 ft | 271 kts | 259° |
| 2026-05-08 13:19 | -23.40722 | -50.80958 | 6561 ft | 273 kts | 259° |
| 2026-05-08 13:19 | -23.41279 | -50.82924 | 6233 ft | 270 kts | 259° |
| 2026-05-08 13:19 | -23.41824 | -50.84873 | 5858 ft | 269 kts | 259° |
| 2026-05-08 13:20 | -23.42072 | -50.86826 | 5481 ft | 255 kts | 283° |
| 2026-05-08 13:20 | -23.41582 | -50.88648 | 5226 ft | 250 kts | 294° |
| 2026-05-08 13:20 | -23.40953 | -50.90441 | 4859 ft | 256 kts | 294° |
| 2026-05-08 13:20 | -23.40313 | -50.92259 | 4476 ft | 257 kts | 293° |
| 2026-05-08 13:21 | -23.39695 | -50.94075 | 4221 ft | 254 kts | 292° |
| 2026-05-08 13:21 | -23.39112 | -50.95829 | 3986 ft | 237 kts | 292° |
| 2026-05-08 13:21 | -23.38582 | -50.97440 | 3870 ft | 216 kts | 292° |
| 2026-05-08 13:21 | -23.38076 | -50.98907 | 4164 ft | 194 kts | 294° |
| 2026-05-08 13:22 | -23.37605 | -51.00240 | 4021 ft | 185 kts | 293° |
| 2026-05-08 13:22 | -23.37180 | -51.01541 | 3786 ft | 180 kts | 292° |
| 2026-05-08 13:22 | -23.36760 | -51.02811 | 3569 ft | 174 kts | 292° |
| 2026-05-08 13:22 | -23.36359 | -51.04002 | 3324 ft | 161 kts | 293° |
| 2026-05-08 13:23 | -23.35989 | -51.05119 | 3104 ft | 153 kts | 292° |
| 2026-05-08 13:23 | -23.35625 | -51.06205 | 2938 ft | 153 kts | 293° |
| 2026-05-08 13:23 | -23.35268 | -51.07275 | 2702 ft | 147 kts | 290° |
| 2026-05-08 13:23 | -23.34933 | -51.08291 | 2557 ft | 141 kts | 289° |
| 2026-05-08 13:24 | -23.34599 | -51.09290 | 2340 ft | 139 kts | 288° |
| 2026-05-08 13:24 | -23.34267 | -51.10276 | 2167 ft | 140 kts | 289° |
| 2026-05-08 13:24 | -23.33942 | -51.11266 | 2016 ft | 138 kts | 288° |
| 2026-05-08 13:24 | -23.33618 | -51.12232 | 1880 ft | 134 kts | 289° |
| 2026-05-08 13:25 | -23.33349 | -51.13062 | 1876 ft | 89 kts | 289° |
| 2026-05-08 13:25 | -23.33187 | -51.13526 | 1879 ft | 44 kts | 290° |
| 2026-05-08 13:25 | -23.33114 | -51.13711 | 1876 ft | 10 kts | 323° |
| 2026-05-08 13:25 | -23.33066 | -51.13703 | 1876 ft | 8 kts | 22° |
| 2026-05-08 13:26 | -23.33063 | -51.13701 | 1876 ft | 0 kts | 22° |
| 2026-05-08 13:27 | -23.33044 | -51.13697 | 1873 ft | 2 kts | 350° |
| 2026-05-08 13:27 | -23.33030 | -51.13707 | 1876 ft | 4 kts | 314° |
| 2026-05-08 13:27 | -23.33012 | -51.13742 | 1874 ft | 7 kts | 292° |
| 2026-05-08 13:27 | -23.33001 | -51.13773 | 1874 ft | 1 kts | 291° |
| 2026-05-08 13:28 | -23.32992 | -51.13789 | 1876 ft | 3 kts | 320° |
| 2026-05-08 13:28 | -23.32982 | -51.13793 | 1876 ft | 1 kts | 3° |
| 2026-05-08 13:28 | -23.32969 | -51.13789 | 1874 ft | 3 kts | 20° |
| 2026-05-08 13:28 | -23.32959 | -51.13784 | 1873 ft | 2 kts | 22° |
| 2026-05-08 13:29 | -23.32950 | -51.13780 | 1876 ft | 2 kts | 22° |
| 2026-05-08 13:29 | -23.32939 | -51.13775 | 1876 ft | 1 kts | 21° |
| 2026-05-08 13:29 | -23.32935 | -51.13774 | 1875 ft | 1 kts | 21° |
| 2026-05-08 13:29 | -23.32932 | -51.13772 | 1876 ft | 0 kts | 21° |